createdAt,value
2018-07-25T00:01:58.436Z,13.17
2018-07-25T00:04:26.800Z,9.23
2018-07-25T00:06:55.180Z,8.70
2018-07-25T00:09:23.560Z,9.10
2018-07-25T00:11:51.724Z,9.33
2018-07-25T00:14:19.889Z,9.70
2018-07-25T00:16:48.044Z,11.53
2018-07-25T00:19:16.236Z,12.20
2018-07-25T00:21:44.433Z,11.53
2018-07-25T00:24:12.607Z,10.67
2018-07-25T00:26:40.763Z,11.33
2018-07-25T00:29:08.924Z,9.67
2018-07-25T00:31:37.100Z,12.43
2018-07-25T00:34:05.036Z,9.83
2018-07-25T00:36:33.218Z,10.17
2018-07-25T00:39:01.405Z,10.90
2018-07-25T00:41:29.580Z,12.97
2018-07-25T00:43:57.793Z,14.23
2018-07-25T00:46:25.973Z,10.17
2018-07-25T00:48:54.119Z,11.40
2018-07-25T00:51:22.292Z,13.07
2018-07-25T00:53:50.480Z,9.60
2018-07-25T00:56:18.668Z,15.17
2018-07-25T00:58:46.834Z,12.30
2018-07-25T01:01:15.007Z,16.67
2018-07-25T01:03:43.164Z,9.43
2018-07-25T01:06:11.388Z,9.80
2018-07-25T01:08:39.567Z,15.37
2018-07-25T01:11:07.752Z,9.93
2018-07-25T01:13:35.908Z,10.50
2018-07-25T01:16:04.133Z,11.33
2018-07-25T01:18:32.337Z,11.43
2018-07-25T01:21:00.534Z,10.67
2018-07-25T01:23:28.704Z,12.43
2018-07-25T01:25:56.855Z,11.03
2018-07-25T01:28:25.028Z,11.17
2018-07-25T01:30:53.212Z,11.10
2018-07-25T01:33:21.385Z,11.23
2018-07-25T01:35:49.545Z,10.87
2018-07-25T01:38:17.705Z,10.47
2018-07-25T01:40:45.876Z,11.23
2018-07-25T01:43:14.120Z,10.60
2018-07-25T01:45:42.268Z,9.40
2018-07-25T01:48:10.500Z,9.30
2018-07-25T01:50:38.705Z,8.93
2018-07-25T01:53:06.939Z,10.07
2018-07-25T01:55:35.143Z,10.03
2018-07-25T01:58:03.309Z,9.83
2018-07-25T02:00:31.678Z,11.63
2018-07-25T02:02:59.644Z,12.40
2018-07-25T02:05:27.961Z,10.40
2018-07-25T02:07:56.161Z,11.53
2018-07-25T02:10:24.320Z,9.80
2018-07-25T02:12:52.485Z,10.03
2018-07-25T02:15:20.644Z,10.10
2018-07-25T02:17:48.837Z,9.87
2018-07-25T02:20:16.988Z,10.27
2018-07-25T02:22:45.168Z,9.63
2018-07-25T02:25:13.341Z,10.60
2018-07-25T02:27:41.518Z,11.97
2018-07-25T02:30:09.708Z,9.37
2018-07-25T02:32:37.883Z,12.13
2018-07-25T02:35:06.236Z,9.87
2018-07-25T02:37:34.385Z,12.67
2018-07-25T02:40:02.821Z,10.77
2018-07-25T02:42:30.993Z,11.20
2018-07-25T02:44:59.165Z,9.87
2018-07-25T02:47:27.320Z,9.67
2018-07-25T02:49:55.481Z,9.37
2018-07-25T02:52:23.656Z,12.87
2018-07-25T02:54:52.052Z,9.43
2018-07-25T02:57:20.217Z,11.07
2018-07-25T02:59:48.388Z,11.40
2018-07-25T03:02:16.549Z,11.77
2018-07-25T03:04:44.756Z,16.80
2018-07-25T03:07:12.954Z,11.50
2018-07-25T03:09:41.136Z,9.87
2018-07-25T03:12:09.521Z,9.87
2018-07-25T03:14:37.704Z,11.53
2018-07-25T03:17:05.928Z,10.17
2018-07-25T03:19:34.089Z,15.87
2018-07-25T03:22:02.273Z,11.23
2018-07-25T03:24:30.441Z,11.67
2018-07-25T03:26:58.822Z,13.10
2018-07-25T03:29:27.760Z,12.03
2018-07-25T03:31:55.922Z,9.50
2018-07-25T03:34:24.076Z,9.90
2018-07-25T03:36:52.256Z,11.13
2018-07-25T03:39:20.420Z,12.70
2018-07-25T03:41:48.620Z,11.77
2018-07-25T03:44:16.800Z,10.03
2018-07-25T03:46:45.014Z,10.23
2018-07-25T03:49:13.179Z,9.77
2018-07-25T03:51:41.364Z,9.93
2018-07-25T03:54:09.664Z,10.90
2018-07-25T03:56:37.908Z,14.37
2018-07-25T03:59:06.229Z,13.30
2018-07-25T04:01:34.391Z,11.33
2018-07-25T04:04:02.560Z,9.97
2018-07-25T04:06:30.748Z,12.10
2018-07-25T04:08:58.933Z,11.40
2018-07-25T04:11:27.084Z,12.30
2018-07-25T04:13:55.254Z,11.53
2018-07-25T04:16:23.412Z,15.53
2018-07-25T04:18:51.620Z,14.83
2018-07-25T04:21:19.764Z,13.93
2018-07-25T04:23:47.941Z,18.67
2018-07-25T04:26:16.092Z,12.67
2018-07-25T04:28:44.289Z,19.20
2018-07-25T04:31:12.479Z,22.33
2018-07-25T04:33:40.653Z,14.57
2018-07-25T04:36:09.021Z,23.67
2018-07-25T04:38:37.193Z,22.90
2018-07-25T04:41:05.416Z,15.30
2018-07-25T04:43:33.608Z,18.27
2018-07-25T04:46:01.817Z,19.97
2018-07-25T04:48:29.984Z,22.87
2018-07-25T04:50:58.136Z,32.20
2018-07-25T04:53:26.540Z,19.03
2018-07-25T04:55:54.734Z,15.73
2018-07-25T04:58:22.888Z,15.80
2018-07-25T05:00:51.060Z,22.30
2018-07-25T05:03:19.252Z,27.20
2018-07-25T05:05:47.573Z,23.17
2018-07-25T05:08:15.732Z,26.73
2018-07-25T05:10:43.909Z,35.53
2018-07-25T05:13:12.069Z,26.50
2018-07-25T05:15:40.509Z,20.83
2018-07-25T05:18:08.668Z,20.10
2018-07-25T05:20:36.856Z,20.70
2018-07-25T05:23:05.049Z,24.10
2018-07-25T05:25:33.319Z,20.80
2018-07-25T05:28:02.212Z,18.23
2018-07-25T05:30:30.417Z,20.40
2018-07-25T05:32:58.928Z,27.00
2018-07-25T05:35:27.113Z,21.60
2018-07-25T05:37:55.334Z,17.27
2018-07-25T05:40:23.972Z,23.00
2018-07-25T05:42:53.156Z,17.33
2018-07-25T05:45:21.624Z,26.97
2018-07-25T05:47:50.089Z,29.30
2018-07-25T05:50:18.552Z,19.67
2018-07-25T05:52:46.944Z,26.63
2018-07-25T05:55:15.374Z,23.03
2018-07-25T05:57:44.246Z,22.87
2018-07-25T06:00:13.309Z,34.87
2018-07-25T06:02:41.721Z,21.97
2018-07-25T06:05:10.281Z,21.67
2018-07-25T06:07:38.668Z,17.60
2018-07-25T06:10:07.245Z,16.83
2018-07-25T06:12:35.638Z,56.27
2018-07-25T06:15:04.789Z,42.30
2018-07-25T06:17:33.099Z,22.33
2018-07-25T06:20:01.367Z,17.80
2018-07-25T06:22:29.937Z,17.00
2018-07-25T06:24:58.532Z,28.43
2018-07-25T06:27:26.892Z,31.77
2018-07-25T06:29:55.338Z,31.00
2018-07-25T06:32:23.636Z,34.20
2018-07-25T06:34:51.967Z,32.17
2018-07-25T06:37:20.319Z,30.20
2018-07-25T06:39:48.701Z,17.87
2018-07-25T06:42:17.188Z,16.23
2018-07-25T06:44:46.692Z,25.50
2018-07-25T06:47:15.188Z,15.93
2018-07-25T06:49:43.838Z,33.77
2018-07-25T06:52:12.316Z,18.63
2018-07-25T06:54:40.490Z,15.67
2018-07-25T06:57:08.709Z,20.27
2018-07-25T06:59:37.071Z,22.37
2018-07-25T07:02:05.293Z,22.53
2018-07-25T07:04:33.505Z,25.50
2018-07-25T07:07:01.741Z,43.63
2018-07-25T07:09:29.988Z,59.93
2018-07-25T07:11:58.187Z,37.57
2018-07-25T07:14:26.336Z,29.73
2018-07-25T07:16:54.532Z,41.93
2018-07-25T07:19:22.716Z,27.27
2018-07-25T07:21:50.889Z,17.63
2018-07-25T07:24:19.060Z,13.73
2018-07-25T07:26:47.264Z,13.17
2018-07-25T07:29:15.469Z,16.83
2018-07-25T07:31:43.644Z,11.17
2018-07-25T07:34:11.835Z,12.30
2018-07-25T07:36:40.014Z,12.87
2018-07-25T07:39:10.456Z,12.17
2018-07-25T07:41:38.884Z,11.00
2018-07-25T07:44:07.321Z,10.57
2018-07-25T07:46:35.997Z,23.77
2018-07-25T07:49:04.432Z,23.10
2018-07-25T07:51:32.488Z,19.67
2018-07-25T07:54:01.027Z,13.97
2018-07-25T07:56:29.748Z,14.63
2018-07-25T07:58:58.362Z,23.73
2018-07-25T08:01:26.524Z,22.70
2018-07-25T08:03:54.800Z,20.03
2018-07-25T08:06:22.967Z,19.83
2018-07-25T08:08:51.364Z,12.77
2018-07-25T08:11:20.449Z,19.53
2018-07-25T08:13:49.571Z,11.83
2018-07-25T08:16:17.926Z,24.93
2018-07-25T08:18:46.100Z,15.77
2018-07-25T08:21:14.566Z,20.43
2018-07-25T08:23:44.081Z,20.60
2018-07-25T08:26:12.466Z,11.33
2018-07-25T08:28:40.642Z,17.20
2018-07-25T08:31:09.037Z,23.17
2018-07-25T08:33:36.948Z,8.40
2018-07-25T08:36:05.197Z,17.90
2018-07-25T08:38:37.433Z,16.67
2018-07-25T08:41:06.125Z,27.93
2018-07-25T08:43:35.432Z,27.00
2018-07-25T08:46:03.912Z,22.33
2018-07-25T08:48:32.368Z,8.90
2018-07-25T08:51:00.636Z,11.67
2018-07-25T08:53:28.839Z,6.70
2018-07-25T08:55:57.025Z,10.87
2018-07-25T08:58:25.199Z,9.37
2018-07-25T09:00:53.466Z,29.03
2018-07-25T09:03:21.781Z,10.97
2018-07-25T09:05:49.940Z,11.93
2018-07-25T09:08:18.304Z,7.13
2018-07-25T09:10:46.774Z,13.83
2018-07-25T09:13:14.953Z,8.73
2018-07-25T09:15:43.352Z,10.03
2018-07-25T09:18:11.572Z,9.47
2018-07-25T09:20:39.864Z,8.53
2018-07-25T09:23:08.046Z,6.67
2018-07-25T09:25:36.267Z,8.33
2018-07-25T09:28:04.384Z,13.43
2018-07-25T09:30:32.756Z,11.00
2018-07-25T09:33:01.769Z,10.03
2018-07-25T09:35:29.949Z,5.37
2018-07-25T09:37:58.113Z,13.07
2018-07-25T09:40:26.292Z,11.73
2018-07-25T09:42:54.461Z,8.27
2018-07-25T09:45:22.892Z,9.67
2018-07-25T09:47:51.047Z,13.67
2018-07-25T09:50:19.216Z,12.47
2018-07-25T09:52:47.487Z,7.00
2018-07-25T09:55:15.697Z,7.70
2018-07-25T09:57:44.098Z,6.33
2018-07-25T10:00:13.241Z,8.63
2018-07-25T10:02:41.739Z,9.20
2018-07-25T10:05:10.825Z,10.83
2018-07-25T10:07:39.054Z,9.03
2018-07-25T10:10:07.406Z,5.67
2018-07-25T10:12:35.667Z,9.53
2018-07-25T10:15:04.247Z,6.57
2018-07-25T10:17:32.357Z,6.40
2018-07-25T10:20:00.748Z,16.67
2018-07-25T10:22:28.941Z,8.20
2018-07-25T10:24:57.160Z,7.20
2018-07-25T10:27:25.402Z,5.17
2018-07-25T10:29:53.516Z,5.60
2018-07-25T10:32:21.948Z,8.77
2018-07-25T10:34:50.141Z,13.07
2018-07-25T10:37:18.368Z,13.53
2018-07-25T10:39:46.554Z,8.80
2018-07-25T10:42:14.725Z,15.60
2018-07-25T10:44:42.906Z,13.47
2018-07-25T10:47:11.304Z,6.90
2018-07-25T10:49:39.773Z,59.33
2018-07-25T10:52:08.057Z,10.37
2018-07-25T10:54:36.348Z,21.40
2018-07-25T10:57:04.757Z,16.73
2018-07-25T10:59:33.767Z,74.80
2018-07-25T11:02:02.364Z,11.60
2018-07-25T11:04:30.646Z,32.73
2018-07-25T11:06:59.765Z,26.50
2018-07-25T11:09:28.192Z,11.57
2018-07-25T11:11:56.416Z,26.97
2018-07-25T11:14:24.612Z,25.80
2018-07-25T11:16:52.793Z,7.73
2018-07-25T11:19:21.037Z,8.37
2018-07-25T11:21:49.331Z,20.73
2018-07-25T11:24:17.514Z,14.27
2018-07-25T11:26:45.710Z,7.23
2018-07-25T11:29:13.933Z,13.60
2018-07-25T11:31:42.140Z,8.03
2018-07-25T11:34:10.302Z,23.40
2018-07-25T11:36:38.480Z,48.43
2018-07-25T11:39:09.875Z,21.00
2018-07-25T11:41:38.296Z,32.07
2018-07-25T11:44:06.453Z,21.50
2018-07-25T11:46:34.640Z,39.37
2018-07-25T11:49:04.476Z,30.60
2018-07-25T11:51:32.641Z,7.00
2018-07-25T11:54:00.944Z,13.33
2018-07-25T11:56:29.133Z,9.47
2018-07-25T11:58:57.344Z,7.63
2018-07-25T12:01:25.654Z,8.93
2018-07-25T12:03:53.737Z,6.30
2018-07-25T12:06:21.960Z,5.93
2018-07-25T12:08:50.236Z,9.13
2018-07-25T12:11:18.616Z,22.20
2018-07-25T12:13:46.789Z,9.30
2018-07-25T12:16:14.967Z,11.27
2018-07-25T12:18:43.208Z,47.43
2018-07-25T12:21:11.644Z,16.27
2018-07-25T12:23:39.956Z,5.10
2018-07-25T12:26:08.136Z,10.23
2018-07-25T12:28:36.353Z,7.63
2018-07-25T12:31:04.876Z,5.83
2018-07-25T12:33:33.080Z,11.73
2018-07-25T12:36:01.263Z,6.23
2018-07-25T12:38:29.437Z,3.70
2018-07-25T12:40:57.636Z,6.90
2018-07-25T12:43:26.092Z,8.50
2018-07-25T12:45:54.268Z,7.13
2018-07-25T12:48:22.447Z,3.97
2018-07-25T12:50:50.664Z,13.00
2018-07-25T12:53:18.923Z,6.27
2018-07-25T12:55:47.069Z,6.07
2018-07-25T12:58:16.040Z,5.27
2018-07-25T13:00:44.256Z,5.80
2018-07-25T13:03:12.504Z,5.37
2018-07-25T13:05:40.753Z,4.90
2018-07-25T13:08:08.961Z,14.20
2018-07-25T13:10:37.234Z,5.13
2018-07-25T13:13:05.403Z,5.83
2018-07-25T13:15:33.609Z,2.93
2018-07-25T13:18:01.838Z,3.77
2018-07-25T13:20:30.033Z,6.80
2018-07-25T13:22:58.294Z,3.97
2018-07-25T13:25:26.424Z,3.20
2018-07-25T13:27:54.628Z,4.73
2018-07-25T13:30:22.841Z,5.40
2018-07-25T13:32:51.205Z,8.37
2018-07-25T13:35:19.376Z,7.00
2018-07-25T13:37:47.552Z,4.33
2018-07-25T13:40:16.435Z,6.90
2018-07-25T13:42:44.634Z,6.70
2018-07-25T13:45:12.789Z,7.57
2018-07-25T13:47:40.960Z,6.80
2018-07-25T13:50:09.136Z,8.40
2018-07-25T13:52:37.363Z,5.43
2018-07-25T13:55:05.697Z,5.37
2018-07-25T13:57:33.864Z,3.90
2018-07-25T14:00:02.040Z,3.80
2018-07-25T14:02:30.208Z,2.80
2018-07-25T14:04:58.424Z,3.80
2018-07-25T14:07:26.629Z,3.43
2018-07-25T14:09:54.584Z,15.77
2018-07-25T14:12:22.780Z,9.63
2018-07-25T14:14:51.088Z,4.53
2018-07-25T14:17:19.276Z,9.53
2018-07-25T14:19:47.428Z,3.47
2018-07-25T14:22:15.617Z,6.60
2018-07-25T14:24:43.786Z,9.13
2018-07-25T14:27:12.077Z,7.83
2018-07-25T14:29:40.253Z,6.50
2018-07-25T14:32:08.477Z,9.50
2018-07-25T14:34:36.749Z,9.60
2018-07-25T14:37:04.957Z,6.90
2018-07-25T14:39:33.160Z,4.57
2018-07-25T14:42:01.372Z,3.97
2018-07-25T14:44:29.586Z,5.37
2018-07-25T14:46:57.904Z,4.20
2018-07-25T14:49:25.914Z,5.43
2018-07-25T14:51:54.240Z,7.37
2018-07-25T14:54:22.443Z,6.67
2018-07-25T14:56:50.662Z,4.07
2018-07-25T14:59:18.885Z,4.97
2018-07-25T15:01:47.298Z,4.50
2018-07-25T15:04:15.504Z,5.30
2018-07-25T15:06:43.863Z,13.17
2018-07-25T15:09:12.206Z,10.23
2018-07-25T15:11:40.793Z,3.97
2018-07-25T15:14:09.466Z,5.40
2018-07-25T15:16:37.856Z,3.67
2018-07-25T15:19:06.009Z,4.23
2018-07-25T15:21:34.285Z,5.20
2018-07-25T15:24:03.851Z,6.70
2018-07-25T15:26:32.029Z,7.93
2018-07-25T15:29:01.093Z,5.20
2018-07-25T15:31:29.589Z,2.63
2018-07-25T15:33:57.780Z,5.57
2018-07-25T15:36:40.533Z,6.73
2018-07-25T15:39:11.537Z,2.90
2018-07-25T15:41:39.849Z,10.97
2018-07-25T15:44:08.071Z,3.73
2018-07-25T15:46:36.253Z,6.83
2018-07-25T15:49:04.688Z,7.57
2018-07-25T15:51:32.881Z,5.93
2018-07-25T15:54:01.244Z,5.40
2018-07-25T15:56:29.410Z,8.07
2018-07-25T15:58:57.364Z,10.57
2018-07-25T16:01:25.544Z,6.60
2018-07-25T16:03:54.016Z,6.70
2018-07-25T16:06:22.716Z,6.47
2018-07-25T16:08:51.005Z,3.43
2018-07-25T16:11:19.285Z,4.83
2018-07-25T16:13:47.667Z,7.43
2018-07-25T16:16:16.333Z,5.20
2018-07-25T16:18:44.732Z,5.70
2018-07-25T16:21:12.900Z,6.03
2018-07-25T16:23:41.100Z,5.93
2018-07-25T16:26:09.261Z,3.77
2018-07-25T16:28:37.477Z,3.10
2018-07-25T16:31:05.788Z,6.30
2018-07-25T16:33:33.961Z,7.37
2018-07-25T16:36:02.129Z,5.60
2018-07-25T16:38:30.300Z,9.77
2018-07-25T16:40:58.681Z,7.30
2018-07-25T16:43:26.619Z,3.83
2018-07-25T16:45:54.788Z,5.80
2018-07-25T16:48:22.969Z,3.30
2018-07-25T16:50:51.144Z,4.13
2018-07-25T16:53:19.368Z,6.37
2018-07-25T16:55:47.524Z,6.07
2018-07-25T16:58:15.700Z,6.27
2018-07-25T17:00:43.855Z,6.73
2018-07-25T17:03:12.051Z,8.50
2018-07-25T17:05:40.236Z,12.50
2018-07-25T17:08:08.430Z,9.77
2018-07-25T17:10:36.619Z,9.17
2018-07-25T17:13:04.805Z,6.13
2018-07-25T17:15:33.000Z,5.70
2018-07-25T17:18:01.316Z,3.70
2018-07-25T17:20:29.592Z,6.33
2018-07-25T17:22:57.750Z,3.67
2018-07-25T17:25:26.063Z,8.90
2018-07-25T17:27:54.309Z,6.43
2018-07-25T17:30:22.605Z,10.57
2018-07-25T17:32:50.961Z,7.30
2018-07-25T17:35:19.442Z,10.83
2018-07-25T17:37:47.580Z,5.43
2018-07-25T17:40:15.963Z,7.13
2018-07-25T17:42:44.141Z,6.43
2018-07-25T17:45:12.748Z,4.73
2018-07-25T17:47:41.738Z,5.60
2018-07-25T17:50:10.432Z,4.50
2018-07-25T17:52:39.420Z,8.77
2018-07-25T17:55:07.713Z,8.47
2018-07-25T17:57:35.876Z,4.67
2018-07-25T18:00:06.614Z,7.20
2018-07-25T18:02:34.773Z,7.70
2018-07-25T18:05:02.997Z,3.97
2018-07-25T18:07:31.192Z,6.37
2018-07-25T18:09:59.408Z,3.00
2018-07-25T18:12:27.562Z,9.37
2018-07-25T18:14:55.724Z,6.50
2018-07-25T18:17:23.947Z,5.80
2018-07-25T18:19:52.113Z,5.63
2018-07-25T18:22:20.316Z,6.60
2018-07-25T18:24:48.494Z,5.33
2018-07-25T18:27:16.663Z,12.23
2018-07-25T18:29:44.903Z,4.97
2018-07-25T18:32:13.079Z,7.60
2018-07-25T18:34:41.280Z,5.67
2018-07-25T18:37:09.457Z,6.23
2018-07-25T18:39:37.645Z,5.77
2018-07-25T18:42:05.845Z,6.47
2018-07-25T18:44:34.028Z,6.97
2018-07-25T18:47:02.263Z,5.10
2018-07-25T18:49:30.421Z,10.57
2018-07-25T18:51:58.600Z,7.17
2018-07-25T18:54:26.777Z,6.47
2018-07-25T18:56:54.952Z,4.47
2018-07-25T18:59:23.128Z,4.63
2018-07-25T19:01:51.351Z,6.37
2018-07-25T19:04:19.513Z,11.43
2018-07-25T19:06:47.689Z,14.10
2018-07-25T19:09:16.820Z,9.40
2018-07-25T19:11:45.720Z,7.07
2018-07-25T19:14:19.420Z,9.20
2018-07-25T19:16:47.777Z,9.83
2018-07-25T19:19:16.177Z,7.53
2018-07-25T19:21:44.372Z,9.73
2018-07-25T19:24:12.552Z,5.17
2018-07-25T19:26:40.714Z,6.63
2018-07-25T19:29:08.912Z,7.63
2018-07-25T19:31:37.080Z,6.53
2018-07-25T19:34:05.264Z,11.47
2018-07-25T19:36:33.468Z,18.17
2018-07-25T19:39:01.849Z,10.20
2018-07-25T19:41:30.072Z,6.23
2018-07-25T19:43:58.314Z,7.73
2018-07-25T19:46:26.520Z,6.60
2018-07-25T19:48:54.856Z,10.63
2018-07-25T19:51:23.421Z,7.43
2018-07-25T19:53:51.580Z,10.03
2018-07-25T19:56:19.758Z,8.83
2018-07-25T19:58:47.935Z,11.50
2018-07-25T20:01:16.104Z,10.97
2018-07-25T20:03:44.296Z,6.27
2018-07-25T20:06:12.456Z,5.80
2018-07-25T20:08:40.656Z,8.87
2018-07-25T20:11:08.844Z,7.70
2018-07-25T20:13:41.248Z,9.17
2018-07-25T20:16:09.461Z,9.23
2018-07-25T20:18:37.395Z,8.47
2018-07-25T20:21:05.813Z,8.77
2018-07-25T20:23:33.981Z,8.60
2018-07-25T20:26:02.156Z,6.00
2018-07-25T20:28:30.312Z,5.87
2018-07-25T20:30:59.925Z,7.13
2018-07-25T20:33:28.196Z,6.70
2018-07-25T20:35:56.469Z,5.13
2018-07-25T20:38:24.601Z,8.13
2018-07-25T20:40:52.824Z,5.13
2018-07-25T20:43:21.013Z,9.10
2018-07-25T20:45:49.014Z,10.83
2018-07-25T20:48:17.181Z,10.30
2018-07-25T20:50:45.570Z,6.20
2018-07-25T20:53:13.712Z,9.23
2018-07-25T20:55:41.893Z,9.53
2018-07-25T20:58:10.070Z,11.10
2018-07-25T21:00:38.326Z,9.03
2018-07-25T21:03:07.134Z,8.47
2018-07-25T21:05:35.509Z,7.83
2018-07-25T21:08:03.447Z,14.80
2018-07-25T21:10:31.830Z,9.83
2018-07-25T21:13:00.057Z,10.57
2018-07-25T21:15:28.256Z,5.83
2018-07-25T21:17:56.420Z,4.67
2018-07-25T21:20:24.596Z,11.30
2018-07-25T21:22:52.762Z,6.10
2018-07-25T21:25:20.921Z,6.30
2018-07-25T21:27:49.101Z,7.40
2018-07-25T21:30:17.258Z,7.50
2018-07-25T21:32:45.425Z,5.90
2018-07-25T21:35:13.585Z,13.13
2018-07-25T21:37:41.749Z,6.40
2018-07-25T21:40:09.907Z,7.20
2018-07-25T21:42:38.080Z,9.60
2018-07-25T21:45:06.532Z,5.50
2018-07-25T21:47:34.691Z,9.40
2018-07-25T21:50:02.861Z,8.10
2018-07-25T21:52:30.787Z,6.50
2018-07-25T21:54:58.944Z,10.40
2018-07-25T21:57:27.113Z,5.73
2018-07-25T21:59:55.265Z,5.13
2018-07-25T22:02:23.425Z,8.57
2018-07-25T22:04:51.573Z,7.07
2018-07-25T22:07:19.740Z,5.57
2018-07-25T22:09:47.672Z,6.47
2018-07-25T22:12:15.849Z,14.27
2018-07-25T22:14:43.998Z,7.70
2018-07-25T22:17:12.144Z,4.43
2018-07-25T22:19:40.296Z,7.17
2018-07-25T22:22:08.464Z,4.97
2018-07-25T22:24:36.623Z,10.97
2018-07-25T22:27:04.788Z,5.07
2018-07-25T22:29:32.970Z,8.17
2018-07-25T22:32:01.137Z,8.40
2018-07-25T22:34:29.287Z,9.50
2018-07-25T22:36:57.460Z,7.33
2018-07-25T22:39:25.610Z,6.57
2018-07-25T22:41:53.897Z,5.43
2018-07-25T22:44:22.079Z,8.83
2018-07-25T22:46:50.231Z,6.50
2018-07-25T22:49:18.394Z,6.87
2018-07-25T22:51:46.557Z,6.77
2018-07-25T22:54:14.717Z,7.50
2018-07-25T22:56:42.868Z,6.10
2018-07-25T22:59:11.036Z,6.20
2018-07-25T23:01:39.180Z,6.73
2018-07-25T23:04:07.620Z,7.00
2018-07-25T23:06:35.772Z,5.43
2018-07-25T23:09:06.100Z,7.40
2018-07-25T23:11:34.293Z,7.00
2018-07-25T23:14:02.454Z,8.40
2018-07-25T23:16:30.612Z,9.13
2018-07-25T23:18:58.807Z,10.53
2018-07-25T23:21:26.990Z,14.03
2018-07-25T23:23:55.152Z,7.63
2018-07-25T23:26:23.327Z,4.77
2018-07-25T23:28:51.475Z,5.90
2018-07-25T23:31:19.648Z,6.60
2018-07-25T23:33:47.788Z,7.57
2018-07-25T23:36:15.961Z,7.50
2018-07-25T23:38:44.164Z,6.80
2018-07-25T23:41:12.353Z,7.43
2018-07-25T23:43:40.513Z,6.57
2018-07-25T23:46:08.672Z,5.20
2018-07-25T23:48:36.833Z,5.07
2018-07-25T23:51:05.001Z,9.20
2018-07-25T23:53:33.157Z,7.83
2018-07-25T23:56:01.320Z,7.47
2018-07-25T23:58:29.480Z,9.13
